Time;durP1;ratioP1;P1;durP2;ratioP2;P2;SDS_P1;SDS_P2;PMS_P1;PMS_P2;Temp;Humidity;BMP_temperature;BMP_pressure;BME280_temperature;BME280_humidity;BME280_pressure;Samples;Min_cycle;Max_cycle;Signal;HPM_P1;HPM_P2
2023/06/28 04:10:54;;;;;;;8.05;3.35;;;;;;;19.72;62.68;100399.34;5606536;31;77069;-61
2023/06/28 04:13:57;;;;;;;7.40;3.10;;;;;;;19.72;62.68;100399.34;5583337;31;34106;-61
2023/06/28 04:17:00;;;;;;;5.35;3.47;;;;;;;19.21;61.38;100402.38;5583284;31;34177;-61
2023/06/28 04:20:05;;;;;;;6.68;3.70;;;;;;;19.14;71.03;100410.28;5583171;32;34325;-61
2023/06/28 04:23:08;;;;;;;7.78;2.97;;;;;;;19.14;63.80;100415.72;5583157;32;35189;-61
2023/06/28 04:26:10;;;;;;;4.82;3.03;;;;;;;19.25;67.18;100416.87;5583240;32;34560;-61
2023/06/28 04:29:13;;;;;;;6.28;2.87;;;;;;;19.30;63.70;100424.00;5583031;32;34163;-61
2023/06/28 04:32:26;;;;;;;3.90;2.83;;;;;;;19.40;61.73;100418.16;5583190;32;33539;-61
2023/06/28 04:35:30;;;;;;;4.78;3.25;;;;;;;19.37;62.44;100412.56;5583203;31;33799;-61
2023/06/28 04:38:32;;;;;;;7.70;2.75;;;;;;;19.36;61.95;100416.41;5574223;32;33770;-61
2023/06/28 04:41:34;;;;;;;7.40;2.97;;;;;;;19.34;62.18;100416.78;5563512;32;33532;-58
2023/06/28 04:44:41;;;;;;;5.95;3.03;;;;;;;19.40;61.79;100422.75;5563176;32;33960;-59
2023/06/28 04:47:43;;;;;;;7.28;3.17;;;;;;;19.48;61.80;100413.72;5562828;32;34171;-59
2023/06/28 04:50:47;;;;;;;4.97;2.80;;;;;;;19.53;68.75;100424.34;5563355;32;33631;-58
2023/06/28 04:53:49;;;;;;;8.20;3.72;;;;;;;19.45;61.69;100422.56;5563145;32;34396;-58
2023/06/28 04:56:52;;;;;;;8.15;2.85;;;;;;;19.42;64.32;100431.38;5562342;32;33707;-58
2023/06/28 04:59:55;;;;;;;5.40;2.80;;;;;;;19.42;64.32;100423.22;5561957;32;33713;-58
2023/06/28 05:03:01;;;;;;;5.03;3.20;;;;;;;19.47;70.43;100428.47;5562461;32;33995;-58
2023/06/28 05:06:09;;;;;;;7.32;2.90;;;;;;;19.66;65.59;100439.56;5562635;32;33772;-58
2023/06/28 05:09:11;;;;;;;3.42;2.40;;;;;;;19.60;59.27;100432.78;5562652;32;33394;-58
2023/06/28 05:12:13;;;;;;;5.37;2.67;;;;;;;19.53;57.60;100435.22;5562973;32;34450;-59
2023/06/28 05:15:16;;;;;;;7.80;2.87;;;;;;;19.46;56.57;100432.28;5562866;32;33975;-58
2023/06/28 05:18:19;;;;;;;5.97;2.83;;;;;;;19.60;60.33;100437.37;5562712;32;34377;-58
2023/06/28 05:21:22;;;;;;;5.25;2.60;;;;;;;19.59;56.54;100435.81;5553135;32;33537;-58
2023/06/28 05:24:25;;;;;;;10.63;2.72;;;;;;;19.72;58.53;100445.59;5549180;32;34214;-58
2023/06/28 05:27:27;;;;;;;6.75;2.55;;;;;;;19.73;56.75;100455.31;5549705;32;33647;-58
2023/06/28 05:30:30;;;;;;;7.22;2.70;;;;;;;19.79;57.33;100456.69;5549699;32;34369;-58
2023/06/28 05:33:34;;;;;;;6.30;2.50;;;;;;;19.83;57.05;100459.53;5549533;32;33364;-58
2023/06/28 05:36:37;;;;;;;7.40;3.03;;;;;;;19.92;60.12;100457.50;5549493;32;33782;-58
2023/06/28 05:39:39;;;;;;;5.95;2.75;;;;;;;19.94;58.50;100447.84;5549081;32;33839;-58
2023/06/28 05:42:41;;;;;;;8.65;3.00;;;;;;;19.98;55.67;100447.97;5549214;32;33701;-58
2023/06/28 05:45:44;;;;;;;4.15;2.20;;;;;;;19.99;56.23;100444.09;5548780;32;33559;-58
2023/06/28 05:48:46;;;;;;;4.68;2.60;;;;;;;19.92;54.80;100443.87;5548862;32;34262;-58
2023/06/28 05:51:50;;;;;;;5.35;2.37;;;;;;;19.90;61.35;100448.84;5549039;32;33652;-60
2023/06/28 05:54:52;;;;;;;3.20;2.10;;;;;;;19.95;54.94;100441.28;5549117;32;33487;-61
2023/06/28 05:57:55;;;;;;;3.47;1.85;;;;;;;19.94;53.61;100447.06;5548691;32;33595;-61
2023/06/28 06:00:57;;;;;;;5.30;2.08;;;;;;;19.94;53.66;100436.19;5549272;32;33722;-61
2023/06/28 06:03:59;;;;;;;5.65;1.62;;;;;;;20.08;56.65;100449.44;5549100;32;33925;-61
2023/06/28 06:07:02;;;;;;;2.50;1.77;;;;;;;20.04;50.39;100452.03;5548866;32;33786;-61
2023/06/28 06:10:05;;;;;;;3.97;1.50;;;;;;;20.08;49.77;100457.59;5563030;32;33873;-60
2023/06/28 06:13:09;;;;;;;18.65;2.40;;;;;;;20.07;49.37;100462.25;5557831;32;33854;-61
2023/06/28 06:16:12;;;;;;;3.67;1.67;;;;;;;20.06;51.58;100466.09;5566732;32;33623;-61
2023/06/28 06:19:14;;;;;;;3.65;1.80;;;;;;;20.25;49.33;100464.72;5563055;32;33636;-61
2023/06/28 06:22:16;;;;;;;3.72;1.87;;;;;;;20.22;49.52;100470.84;5566321;32;34095;-61
2023/06/28 06:25:18;;;;;;;10.07;2.12;;;;;;;20.19;53.95;100470.38;5568126;32;33615;-61
2023/06/28 06:28:21;;;;;;;5.53;1.75;;;;;;;20.32;54.35;100479.31;5558820;32;33381;-61
2023/06/28 06:31:23;;;;;;;34.88;4.07;;;;;;;20.38;50.49;100483.41;5559502;32;34135;-61
2023/06/28 06:34:26;;;;;;;5.47;2.00;;;;;;;20.40;53.13;100491.22;5556427;32;33964;-61
2023/06/28 06:37:28;;;;;;;3.03;1.30;;;;;;;20.28;50.48;100492.03;5548644;32;33755;-61
2023/06/28 06:40:31;;;;;;;2.42;1.70;;;;;;;20.35;50.08;100500.41;5565836;32;34267;-61
2023/06/28 06:43:33;;;;;;;2.37;1.35;;;;;;;20.35;54.94;100491.47;5563408;32;34022;-61
2023/06/28 06:46:36;;;;;;;2.58;1.48;;;;;;;20.43;51.17;100493.28;5560902;32;33647;-61
2023/06/28 06:49:39;;;;;;;3.65;1.67;;;;;;;20.35;50.51;100497.69;5565663;32;33642;-61
2023/06/28 06:52:41;;;;;;;4.50;2.00;;;;;;;20.26;50.46;100505.19;5568056;32;33814;-61
2023/06/28 06:55:43;;;;;;;3.75;1.55;;;;;;;20.19;51.57;100508.47;5565120;32;33919;-61
2023/06/28 06:58:46;;;;;;;2.50;1.40;;;;;;;20.00;50.33;100515.63;5566955;32;34306;-61
2023/06/28 07:01:48;;;;;;;5.43;1.60;;;;;;;20.10;53.34;100513.28;5561349;32;34292;-60
2023/06/28 07:04:50;;;;;;;5.18;1.98;;;;;;;20.05;53.29;100508.03;5564908;32;33566;-61
2023/06/28 07:07:54;;;;;;;2.20;1.70;;;;;;;19.99;53.73;100514.84;5567495;32;33547;-60
2023/06/28 07:10:57;;;;;;;4.22;1.70;;;;;;;20.00;52.87;100521.91;5566379;32;33318;-61
2023/06/28 07:13:59;;;;;;;4.25;1.70;;;;;;;20.09;52.10;100519.03;5557443;32;33723;-61
2023/06/28 07:17:02;;;;;;;3.65;1.80;;;;;;;20.10;51.62;100520.66;5562278;32;33130;-60
2023/06/28 07:20:05;;;;;;;4.55;1.60;;;;;;;20.07;59.67;100521.31;5559064;32;34235;-60
2023/06/28 07:23:08;;;;;;;3.95;2.00;;;;;;;20.09;50.98;100530.72;5554120;32;32370;-61
2023/06/28 07:26:10;;;;;;;5.93;1.87;;;;;;;19.83;53.62;100528.31;5562634;32;33610;-60
2023/06/28 07:29:13;;;;;;;7.80;1.95;;;;;;;19.91;55.33;100523.94;5560440;32;33628;-61
2023/06/28 07:32:15;;;;;;;3.50;1.80;;;;;;;19.91;56.52;100521.22;5557847;32;33371;-61
2023/06/28 07:35:17;;;;;;;3.72;1.65;;;;;;;19.95;55.07;100527.53;5556579;32;34314;-61
2023/06/28 07:38:20;;;;;;;5.30;1.50;;;;;;;19.94;53.31;100540.38;5559776;31;33649;-61
2023/06/28 07:41:23;;;;;;;7.80;1.60;;;;;;;19.93;53.83;100548.84;5548126;32;33623;-61
2023/06/28 07:44:25;;;;;;;4.15;1.73;;;;;;;19.98;53.42;100542.41;5547805;32;33715;-61
2023/06/28 07:47:28;;;;;;;5.22;1.67;;;;;;;19.83;52.20;100546.56;5550798;32;34165;-61
2023/06/28 07:50:31;;;;;;;6.22;1.73;;;;;;;19.83;53.17;100543.84;5565418;32;33654;-61
2023/06/28 07:53:34;;;;;;;3.12;1.70;;;;;;;19.83;53.62;100546.56;5563458;32;34055;-61
2023/06/28 07:56:37;;;;;;;7.35;1.90;;;;;;;19.84;56.71;100545.47;5559198;32;33920;-60
2023/06/28 07:59:42;;;;;;;;;;;;;;;19.78;53.77;100553.03;5557644;32;33652;-60
2023/06/28 08:02:45;;;;;;;2.65;1.40;;;;;;;19.66;53.65;100548.34;5566816;32;33543;-60
2023/06/28 08:05:47;;;;;;;5.85;2.10;;;;;;;19.67;56.10;100551.91;5567124;32;33950;-60
2023/06/28 08:08:50;;;;;;;5.53;2.05;;;;;;;19.72;55.15;100551.66;5566759;32;34347;-61
2023/06/28 08:11:53;;;;;;;8.52;2.17;;;;;;;19.71;55.56;100553.59;5559962;32;34379;-60
2023/06/28 08:14:55;;;;;;;5.30;1.70;;;;;;;19.74;55.96;100537.75;5567034;32;33740;-60
2023/06/28 08:17:57;;;;;;;4.32;2.00;;;;;;;19.74;54.87;100540.47;5557718;32;33568;-60
2023/06/28 08:21:00;;;;;;;7.45;2.08;;;;;;;19.86;62.13;100537.75;5564984;32;34444;-60
2023/06/28 08:24:03;;;;;;;3.67;1.55;;;;;;;19.92;57.09;100533.66;5560830;32;33625;-60
2023/06/28 08:27:06;;;;;;;9.93;2.10;;;;;;;19.88;54.48;100532.75;5566016;32;34193;-60
2023/06/28 08:30:09;;;;;;;3.42;1.80;;;;;;;19.88;56.66;100540.94;5565780;32;33109;-60
2023/06/28 08:33:12;;;;;;;3.37;1.90;;;;;;;19.87;54.03;100523.81;5561043;32;34098;-60
2023/06/28 08:36:14;;;;;;;5.47;1.80;;;;;;;19.95;54.99;100533.00;5565577;32;33272;-60
2023/06/28 08:39:16;;;;;;;3.42;1.60;;;;;;;19.95;55.07;100528.34;5555237;32;34272;-60
2023/06/28 08:42:19;;;;;;;7.47;2.03;;;;;;;20.12;53.23;100524.59;5547178;32;33618;-61
2023/06/28 08:45:23;;;;;;;9.60;2.10;;;;;;;20.06;55.23;100536.03;5553237;32;34843;-60
2023/06/28 08:48:26;;;;;;;6.87;2.28;;;;;;;20.19;55.46;100530.25;5566124;32;33506;-60
2023/06/28 08:51:32;;;;;;;5.80;2.00;;;;;;;20.42;54.77;100525.13;5565301;32;33354;-60
2023/06/28 08:54:35;;;;;;;8.15;2.67;;;;;;;20.83;57.40;100526.00;5566216;32;33122;-60
2023/06/28 08:57:39;;;;;;;48.87;3.85;;;;;;;20.92;53.54;100520.38;5563008;32;33970;-60
2023/06/28 09:00:42;;;;;;;6.10;1.98;;;;;;;21.07;52.01;100514.19;5565626;32;33865;-60
2023/06/28 09:03:46;;;;;;;4.07;2.10;;;;;;;21.00;52.33;100507.75;5565541;32;33591;-60
2023/06/28 09:06:50;;;;;;;4.93;2.17;;;;;;;21.01;53.35;100518.31;5568855;32;33679;-60
2023/06/28 09:09:54;;;;;;;3.50;2.00;;;;;;;20.82;52.55;100505.31;5567505;32;33573;-60
2023/06/28 09:12:58;;;;;;;4.68;1.83;;;;;;;20.97;51.83;100508.44;5566696;32;34952;-60
2023/06/28 09:16:00;;;;;;;3.03;1.77;;;;;;;20.96;53.67;100515.84;5564859;32;34351;-60
2023/06/28 09:19:03;;;;;;;5.65;1.90;;;;;;;21.24;55.34;100506.84;5560566;32;33360;-60
2023/06/28 09:22:08;;;;;;;5.30;2.00;;;;;;;21.40;53.87;100504.97;5563870;32;33208;-60
2023/06/28 09:25:14;;;;;;;2.72;1.75;;;;;;;21.38;52.56;100495.53;5557347;32;34465;-60
2023/06/28 09:28:17;;;;;;;2.45;1.70;;;;;;;21.51;52.63;100500.56;5566263;32;33616;-60
2023/06/28 09:31:31;;;;;;;4.20;1.73;;;;;;;21.60;52.95;100502.34;5567849;32;34415;-60
2023/06/28 09:34:36;;;;;;;5.22;1.80;;;;;;;21.57;51.09;100492.94;5563562;32;34322;-60
2023/06/28 09:37:38;;;;;;;3.97;1.85;;;;;;;21.33;51.98;100496.56;5568353;32;33233;-60
2023/06/28 09:40:41;;;;;;;3.00;1.92;;;;;;;21.27;51.62;100490.56;5566210;32;34265;-60
2023/06/28 09:43:44;;;;;;;2.65;1.70;;;;;;;21.38;54.46;100490.09;5567787;32;34078;-60
2023/06/28 09:46:47;;;;;;;4.12;2.00;;;;;;;21.46;52.71;100489.16;5551593;32;33937;-60
2023/06/28 09:49:56;;;;;;;3.28;1.60;;;;;;;21.59;53.62;100487.91;5548935;32;34532;-60
2023/06/28 09:52:58;;;;;;;3.30;1.87;;;;;;;21.75;49.67;100487.91;5553036;32;33748;-60
2023/06/28 09:56:01;;;;;;;3.53;1.70;;;;;;;21.88;51.61;100483.12;5568165;32;33839;-60
2023/06/28 09:59:06;;;;;;;6.75;1.67;;;;;;;21.85;49.85;100479.16;5568390;32;33869;-60
2023/06/28 10:02:16;;;;;;;2.78;1.62;;;;;;;21.88;45.91;100481.19;5568071;32;34332;-60
2023/06/28 10:05:19;;;;;;;4.10;1.60;;;;;;;21.91;46.20;100471.50;5568355;32;34131;-60
2023/06/28 10:08:22;;;;;;;2.95;1.58;;;;;;;21.93;45.75;100480.16;5568012;32;33681;-60
2023/06/28 10:11:29;;;;;;;6.00;1.52;;;;;;;21.96;46.08;100487.63;5565736;32;33683;-60
2023/06/28 10:14:38;;;;;;;3.95;1.67;;;;;;;22.14;48.00;100479.84;5563591;32;33235;-60
2023/06/28 10:17:43;;;;;;;5.65;1.80;;;;;;;22.27;46.82;100475.88;5556561;32;34355;-61
2023/06/28 10:20:47;;;;;;;3.17;1.70;;;;;;;22.38;47.51;100465.97;5551382;32;33645;-60
2023/06/28 10:23:50;;;;;;;2.80;1.40;;;;;;;22.41;47.55;100467.97;5565205;32;33634;-60
2023/06/28 10:26:53;;;;;;;5.55;1.48;;;;;;;22.49;48.21;100461.53;5567617;32;34281;-60
2023/06/28 10:29:57;;;;;;;4.03;1.52;;;;;;;22.63;46.45;100460.25;5556379;31;34976;-60
2023/06/28 10:33:00;;;;;;;4.90;1.70;;;;;;;22.74;45.51;100450.31;5559730;32;33523;-59
2023/06/28 10:36:04;;;;;;;2.83;1.60;;;;;;;22.82;43.70;100441.09;5557793;32;33707;-59
2023/06/28 10:39:07;;;;;;;16.62;1.80;;;;;;;22.80;45.82;100453.53;5565112;32;33710;-60
2023/06/28 10:42:10;;;;;;;3.45;1.30;;;;;;;22.72;46.84;100428.81;5561624;32;32141;-59
2023/06/28 10:45:13;;;;;;;3.90;1.75;;;;;;;22.60;45.83;100426.22;5560427;32;33623;-59
2023/06/28 10:48:23;;;;;;;7.30;1.40;;;;;;;22.63;46.29;100432.91;5556751;32;33756;-59
2023/06/28 10:51:27;;;;;;;1.95;1.40;;;;;;;22.72;45.93;100439.75;5559302;32;34333;-59
2023/06/28 10:54:30;;;;;;;2.78;1.67;;;;;;;22.81;50.20;100430.50;5560259;32;33626;-59
2023/06/28 10:57:37;;;;;;;6.35;1.70;;;;;;;22.85;44.44;100417.72;5557793;32;33297;-59
2023/06/28 11:00:42;;;;;;;3.97;1.60;;;;;;;22.84;46.64;100422.38;5556593;32;32426;-58
2023/06/28 11:03:45;;;;;;;6.23;1.90;;;;;;;22.92;44.81;100423.31;5560727;32;33994;-59
2023/06/28 11:07:08;;;;;;;2.00;1.40;;;;;;;23.05;44.93;100418.50;5558990;32;33593;-58
2023/06/28 11:10:16;;;;;;;3.50;1.65;;;;;;;23.13;45.14;100428.41;5557141;32;33619;-59
2023/06/28 11:13:32;;;;;;;5.07;1.55;;;;;;;23.24;44.67;100418.44;5554585;32;33280;-58
2023/06/28 11:16:36;;;;;;;6.28;1.75;;;;;;;23.22;42.56;100420.75;5558740;32;33430;-58
2023/06/28 11:19:41;;;;;;;2.45;1.48;;;;;;;23.14;42.88;100419.03;5563715;32;34422;-59
2023/06/28 11:22:49;;;;;;;1.98;1.30;;;;;;;23.05;44.06;100415.78;5566162;32;33363;-58
2023/06/28 11:26:02;;;;;;;1.92;1.40;;;;;;;23.04;42.03;100425.09;5554663;32;33342;-58
2023/06/28 11:29:18;;;;;;;3.92;1.70;;;;;;;22.96;42.86;100410.53;5558376;32;33275;-58
2023/06/28 11:32:25;;;;;;;2.08;1.42;;;;;;;22.88;47.76;100415.06;5557492;32;33414;-59
2023/06/28 11:35:28;;;;;;;4.45;1.48;;;;;;;22.88;50.38;100417.78;5559323;32;33315;-58
2023/06/28 11:38:32;;;;;;;4.22;1.60;;;;;;;23.02;42.10;100419.22;5553343;32;33597;-59
2023/06/28 11:41:35;;;;;;;3.45;1.60;;;;;;;23.08;41.20;100402.16;5555628;32;34016;-58
2023/06/28 11:44:51;;;;;;;3.17;1.52;;;;;;;22.94;43.00;100399.16;5557119;32;33648;-58
2023/06/28 11:47:53;;;;;;;2.97;1.40;;;;;;;22.98;44.08;100405.50;5557039;32;33705;-59
2023/06/28 11:51:00;;;;;;;3.55;1.55;;;;;;;22.98;41.79;100389.09;5555402;32;34336;-58
2023/06/28 11:54:06;;;;;;;1.98;1.42;;;;;;;23.14;43.86;100391.69;5557603;32;32414;-59
2023/06/28 11:57:12;;;;;;;2.67;1.40;;;;;;;23.10;40.67;100383.44;5556302;32;33169;-59
2023/06/28 12:00:16;;;;;;;5.10;1.60;;;;;;;23.13;40.42;100390.13;5562674;32;33777;-59
2023/06/28 12:03:30;;;;;;;2.28;1.40;;;;;;;23.16;41.00;100373.00;5562241;32;33259;-59
2023/06/28 12:06:33;;;;;;;9.43;2.03;;;;;;;23.13;40.37;100382.72;5563791;32;34384;-59
2023/06/28 12:09:36;;;;;;;3.17;1.52;;;;;;;23.21;41.96;100376.22;5560639;32;33433;-59
2023/06/28 12:12:39;;;;;;;3.20;1.35;;;;;;;23.26;40.72;100375.09;5562856;32;33007;-59
2023/06/28 12:15:42;;;;;;;2.37;1.48;;;;;;;23.29;40.59;100373.59;5562606;32;33595;-59
2023/06/28 12:18:54;;;;;;;2.67;1.50;;;;;;;23.37;40.96;100372.53;5562127;32;34139;-58
2023/06/28 12:22:02;;;;;;;3.22;1.50;;;;;;;23.36;41.00;100373.69;5561825;32;33187;-59
2023/06/28 12:25:05;;;;;;;9.48;1.48;;;;;;;23.43;41.60;100363.66;5555818;32;33454;-59
2023/06/28 12:28:11;;;;;;;4.50;1.65;;;;;;;23.55;40.53;100379.09;5563902;32;33552;-59
2023/06/28 12:31:14;;;;;;;5.62;1.65;;;;;;;23.54;40.22;100373.97;5565170;32;33689;-59
2023/06/28 12:34:22;;;;;;;2.17;1.45;;;;;;;23.27;42.30;100370.41;5569344;32;34412;-59
2023/06/28 12:37:34;;;;;;;4.43;1.45;;;;;;;23.16;40.17;100381.97;5568615;31;33705;-59
2023/06/28 12:40:36;;;;;;;6.43;1.50;;;;;;;23.31;39.74;100361.12;5569142;32;33599;-58
2023/06/28 12:43:38;;;;;;;5.95;1.73;;;;;;;23.40;39.51;100356.19;5568920;32;34344;-59
2023/06/28 12:46:44;;;;;;;3.55;1.60;;;;;;;23.18;40.70;100359.75;5569396;32;33295;-58
2023/06/28 12:49:47;;;;;;;3.67;1.60;;;;;;;23.23;41.42;100350.44;5569467;32;34382;-58
2023/06/28 12:52:49;;;;;;;4.87;1.52;;;;;;;23.24;40.69;100366.47;5569402;32;34364;-58
2023/06/28 12:55:51;;;;;;;4.03;1.50;;;;;;;23.16;41.04;100373.00;5569234;32;34380;-58
2023/06/28 12:58:54;;;;;;;2.22;1.42;;;;;;;23.26;40.90;100372.37;5569103;32;33666;-58
2023/06/28 13:01:57;;;;;;;3.95;1.62;;;;;;;23.32;40.96;100370.13;5569392;32;34402;-59
2023/06/28 13:04:59;;;;;;;3.20;1.60;;;;;;;23.40;40.64;100386.25;5569254;32;33635;-58
2023/06/28 13:08:04;;;;;;;6.12;1.50;;;;;;;23.15;41.23;100377.69;5568230;32;33304;-58
2023/06/28 13:11:08;;;;;;;2.30;1.30;;;;;;;23.23;40.90;100375.84;5568234;32;33610;-58
2023/06/28 13:14:10;;;;;;;1.67;1.30;;;;;;;23.37;41.33;100376.06;5568003;32;34077;-58
2023/06/28 13:17:13;;;;;;;2.15;1.50;;;;;;;23.47;40.91;100382.06;5568977;32;33593;-58
2023/06/28 13:20:15;;;;;;;4.28;1.52;;;;;;;23.50;39.91;100378.59;5569083;32;33734;-59
2023/06/28 13:23:18;;;;;;;6.75;1.58;;;;;;;23.25;40.43;100387.22;5568906;32;32912;-58
2023/06/28 13:26:20;;;;;;;1.80;1.27;;;;;;;23.03;40.36;100393.47;5566274;32;33634;-58
2023/06/28 13:29:23;;;;;;;5.30;1.77;;;;;;;22.84;42.54;100399.72;5568600;32;33234;-59
2023/06/28 13:32:26;;;;;;;3.45;1.20;;;;;;;22.80;42.90;100388.72;5568477;32;33994;-59
2023/06/28 13:35:28;;;;;;;2.67;1.40;;;;;;;22.75;42.39;100380.84;5568444;32;34430;-58
2023/06/28 13:38:30;;;;;;;3.25;1.60;;;;;;;22.81;43.05;100390.31;5568746;31;33846;-59
2023/06/28 13:41:33;;;;;;;6.72;1.37;;;;;;;22.93;42.70;100389.37;5568273;32;34269;-59
2023/06/28 13:44:35;;;;;;;5.37;1.50;;;;;;;22.95;44.02;100381.62;5568984;32;33609;-58
2023/06/28 13:47:38;;;;;;;3.83;1.30;;;;;;;23.01;42.66;100387.56;5568582;32;34087;-58
2023/06/28 13:50:40;;;;;;;3.50;1.62;;;;;;;23.13;42.89;100379.19;5568730;32;33887;-59
2023/06/28 13:53:43;;;;;;;4.78;1.50;;;;;;;23.16;41.44;100387.44;5554327;32;34324;-59
2023/06/28 13:56:45;;;;;;;4.20;1.50;;;;;;;23.32;41.60;100383.81;5568752;32;33661;-59
2023/06/28 13:59:47;;;;;;;4.85;1.70;;;;;;;23.01;42.13;100398.50;5568746;32;33723;-58
2023/06/28 14:02:50;;;;;;;9.90;1.55;;;;;;;22.79;43.58;100406.28;5561288;32;33575;-58
2023/06/28 14:05:54;;;;;;;2.85;1.33;;;;;;;22.61;43.53;100421.53;5551224;32;33830;-59
2023/06/28 14:08:56;;;;;;;4.87;1.50;;;;;;;22.38;44.07;100416.00;5549175;32;34369;-58
2023/06/28 14:11:58;;;;;;;7.97;1.85;;;;;;;21.91;44.31;100423.19;5548433;32;33829;-59
2023/06/28 14:15:04;;;;;;;5.82;1.50;;;;;;;21.84;47.08;100417.56;5549156;32;33676;-58
2023/06/28 14:18:06;;;;;;;5.85;1.70;;;;;;;21.85;45.89;100421.84;5548376;32;34316;-58
2023/06/28 14:21:09;;;;;;;2.83;1.40;;;;;;;21.84;44.60;100419.50;5548827;32;33732;-58
2023/06/28 14:24:12;;;;;;;4.75;1.30;;;;;;;21.98;45.30;100423.31;5564023;32;33336;-58
2023/06/28 14:27:14;;;;;;;4.85;1.30;;;;;;;21.84;43.52;100427.69;5548977;32;34442;-58
2023/06/28 14:30:18;;;;;;;4.22;1.42;;;;;;;21.68;43.68;100428.50;5549222;32;33645;-58
2023/06/28 14:33:23;;;;;;;3.65;1.20;;;;;;;21.55;44.85;100435.97;5562315;32;34893;-58
2023/06/28 14:36:25;;;;;;;8.13;1.73;;;;;;;21.58;47.12;100437.22;5568510;32;34090;-58
2023/06/28 14:39:28;;;;;;;5.62;1.48;;;;;;;21.58;44.01;100439.94;5566969;31;33225;-58
2023/06/28 14:42:30;;;;;;;2.17;1.20;;;;;;;21.64;44.37;100432.28;5559633;32;35915;-59
2023/06/28 14:45:32;;;;;;;8.35;1.60;;;;;;;21.62;43.24;100434.56;5565422;32;34289;-58
2023/06/28 14:48:35;;;;;;;2.30;1.30;;;;;;;21.69;49.81;100434.72;5568767;32;33734;-59
2023/06/28 14:51:37;;;;;;;4.07;1.20;;;;;;;21.76;43.75;100434.94;5565883;32;34324;-59
2023/06/28 14:54:39;;;;;;;2.12;1.23;;;;;;;21.80;47.03;100435.78;5567590;32;33911;-58
2023/06/28 14:57:42;;;;;;;2.28;1.17;;;;;;;21.89;44.05;100433.66;5568480;32;33612;-58
2023/06/28 15:00:45;;;;;;;2.20;1.20;;;;;;;22.03;43.00;100431.25;5568500;32;34367;-59
